Cranfills Gap, Texas
Current Conditions -  °F | °C
As of 6:15 PM on Saturday 25 Oct 2014 (Local Time) from KMNZ Reporting Station
Clear Clear  
Wind Chill: 83°   Ceiling: Unl
Heat Index: 83°   Visibility: 10mi
Dew Point: 56°   Wind: 5mph
Humidity: 38%   Direction: 170°S
Pressure: 30.09"   Gusts: NA
Location:  31.77°N, 97.83°W
Report Text: KMNZ 252315Z AUTO 17004KT 10SM CLR 29/13 A3009 RMK AO2 T02860131
Loading
Personal Weather Stations






























Interactive Weather Map
Tropical Storm Tracking
New forecast layout! Learn more

10-Day Weather Forecast

Advertisements
Track Severe Weather on mobile